ADDS METAR Data INFO
IDs: Format: Raw Decoded Include TAF

Data at: 0302 UTC 22 Apr 2018

KOCH 220256Z AUTO 15006KT 10SM 19/18 A2993 RMK AO2 LTG DSNT S-W SLP138 60072 T01940183 53001 $
KOCH 220156Z AUTO 15008KT 10SM 19/18 A2992 RMK AO2 SLP133 T01940183 $
KOCH 220056Z AUTO 14010G15KT 9SM 19/18 A2991 RMK AO2 PK WND 15026/0019 LTG DSNT N-E TSE38RAE50 SLP133 P0072 T01940183 $
KOCH 220044Z AUTO 13009KT 10SM -RA 19/18 A2991 RMK AO2 PK WND 15026/0019 LTG DSNT N-E TSE38 P0072 $
KOCH 220025Z AUTO 15012G26KT 6SM -TSRA BR 19/18 A2991 RMK AO2 PK WND 15026/0019 LTG DSNT N-E P0072 $
KOCH 220017Z AUTO 16017G24KT 2SM +TSRA BR 19/18 A2990 RMK AO2 VIS 1V5 LTG DSNT N-E P0071 $
KOCH 220009Z AUTO 14017G23KT 1SM +TSRA BR 19/18 A2989 RMK AO2 LTG DSNT N AND NE PRESFR P0062 RVRNO $
KOCH 212359Z AUTO 15012KT 1 3/4SM +TSRA BR 19/18 A2992 RMK AO2 VIS 1V5 LTG DSNT NE AND NW P0013 $
KOCH 212356Z AUTO 15008KT 3SM +TSRA BR 19/18 A2993 RMK AO2 LTG DSNT NE AND NW TSB36RAE2257B21 SLP138 P0016 60033 T01890183 10211 20183 55012 $
KOCH 212342Z AUTO 14007KT 6SM TSRA BR 19/18 A2991 RMK AO2 LTG DSNT SW AND W TSB36RAE2257B21 P0004 $
KOCH 212256Z AUTO 14006KT 10SM -RA 19/18 A2992 RMK AO2 SLP136 P0003 T01940183 $
KOCH 212156Z AUTO 14004KT 10SM -RA 19/18 A2994 RMK AO2 SLP143 P0012 T01890178 $
KOCH 212056Z AUTO 11003KT 9SM -RA 19/17 A2997 RMK AO2 RAB08 SLP151 P0002 60002 T01890172 56022 $
KOCH 211956Z AUTO 14008KT 10SM 21/15 A2998 RMK AO2 LTG DSNT W AND NW SLP157 T02060150 $
KOCH 211856Z AUTO 13010KT 10SM 21/13 A2997 RMK AO2 PRESFR SLP153 T02060128 $
KOCH 211756Z AUTO 15011G17KT 10SM 21/12 A3003 RMK AO2 SLP173 T02110122 10217 20133 58022 $
KOCH 211656Z AUTO 15008KT 10SM 19/11 A3007 RMK AO2 SLP184 T01890106 $
KOCH 211556Z AUTO 14008KT 10SM 17/10 A3008 RMK AO2 SLP190 T01720100 $
KOCH 211456Z AUTO 12006KT 10SM 16/09 A3010 RMK AO2 SLP196 T01560094 50004 $
KOCH 211356Z AUTO 12009KT 10SM 15/09 A3010 RMK AO2 SLP196 T01500089 $
KOCH 211256Z AUTO 10006KT 10SM 14/09 A3010 RMK AO2 SLP196 T01390089 $
KOCH 211156Z AUTO 09006KT 10SM 13/08 A3009 RMK AO2 SLP191 T01330083 10133 20117 55000 $
KOCH 211056Z AUTO 09004KT 10SM 12/08 A3008 RMK AO2 SLP190 T01220078 $
KOCH 210956Z AUTO 10006KT 10SM 12/08 A3007 RMK AO2 SLP185 T01220078 $
KOCH 210856Z AUTO 09004KT 10SM 13/09 A3009 RMK AO2 SLP191 T01280089 56015 $
KOCH 210756Z AUTO 09003KT 10SM 12/09 A3009 RMK AO2 SLP194 T01220094 $
KOCH 210656Z AUTO 00000KT 10SM 12/09 A3012 RMK AO2 SLP201 T01220094 $
KOCH 210556Z AUTO 10004KT 10SM 12/09 A3013 RMK AO2 SLP206 T01220089 10178 20106 402000083 56005 $
KOCH 210456Z AUTO 13003KT 10SM 13/09 A3013 RMK AO2 SLP206 T01330089 $
KOCH 210356Z AUTO 14003KT 10SM 14/09 A3014 RMK AO2 SLP209 T01390089 $
KOCH 210256Z AUTO 11005KT 10SM 12/09 A3014 RMK AO2 SLP212 T01220089 56000 $
KOCH 210156Z AUTO 09003KT 10SM 11/09 A3014 RMK AO2 SLP213 T01110089 $
KOCH 210056Z AUTO 00000KT 10SM 15/09 A3014 RMK AO2 SLP212 T01500089 $
KOCH 202356Z AUTO 13008KT 10SM 18/07 A3015 RMK AO2 SLP212 T01780072 10200 20156 56009 $
KOCH 202256Z AUTO 11009KT 10SM 19/07 A3015 RMK AO2 SLP214 T01890072 $
KOCH 202156Z AUTO 06007KT 020V090 10SM 19/07 A3016 RMK AO2 SLP214 T01940072 $
KOCH 202056Z AUTO 13007KT 10SM 19/07 A3017 RMK AO2 SLP220 T01940067 56040 $
KOCH 201956Z AUTO 07007KT 10SM 18/06 A3021 RMK AO2 SLP234 T01830061 $
KOCH 201856Z AUTO VRB05KT 10SM 17/06 A3025 RMK AO2 SLP246 T01720061 $
KOCH 201756Z AUTO 13007KT 10SM 16/05 A3029 RMK AO2 SLP262 T01560050 10161 20083 58007 $
KOCH 201656Z AUTO 12010G14KT 10SM 14/04 A3031 RMK AO2 SLP266 T01440044 $
KOCH 201556Z AUTO 11009KT 080V140 10SM 13/04 A3033 RMK AO2 SLP274 T01280044 $